< < Back
Terminal Aerodrome Forecast


Current Version              Previous Versions:   1  2  3  4  5  6  7  8  9  

Terminal Aerodrome Forecast

480
FTUS42 KGSP 281303 AAA
TAFHKY
TAF AMD
KHKY 281303Z 2813/2912 06005KT P6SM SCT011 BKN060
      TEMPO 2813/2814 BKN011 OVC060
     FM281700 05006KT P6SM FEW200
     FM290700 00000KT P6SM FEW250=



Latest METAR

149
SAUS70 KWBC 281400 RRD
MTRHKY
METAR KHKY 281353Z 04006KT 10SM FEW013 26/23 A3025 RMK AO2 SLP219
T02610228


USA.gov is the U.S. government's official web portal to all federal, state and local government web resources and services.